Time;durP1;ratioP1;P1;durP2;ratioP2;P2;SDS_P1;SDS_P2;PMS_P1;PMS_P2;Temp;Humidity;BMP_temperature;BMP_pressure;BME280_temperature;BME280_humidity;BME280_pressure;Samples;Min_cycle;Max_cycle;Signal;HPM_P1;HPM_P2
2021/11/29 00:00:48;;;;;;;8.07;3.17;;;;;;;10.14;46.53;100149.59;5043321;28;20040;-56
2021/11/29 00:03:15;;;;;;;3.67;2.75;;;;;;;10.17;46.85;100149.31;5040562;28;20053;-56
2021/11/29 00:05:40;;;;;;;5.72;2.95;;;;;;;10.17;46.81;100152.81;5042060;28;20032;-56
2021/11/29 00:08:06;;;;;;;8.20;2.92;;;;;;;10.18;46.73;100151.00;5043089;28;20394;-56
2021/11/29 00:10:32;;;;;;;4.72;3.17;;;;;;;10.19;46.64;100150.03;5040124;28;20478;-56
2021/11/29 00:12:58;;;;;;;3.28;2.50;;;;;;;10.20;46.44;100147.19;5047131;28;20071;-56
2021/11/29 00:15:24;;;;;;;9.30;3.22;;;;;;;10.19;46.35;100144.69;5052862;28;20072;-56
2021/11/29 00:17:49;;;;;;;4.38;2.67;;;;;;;10.15;46.87;100137.91;5052856;28;20039;-56
2021/11/29 00:20:16;;;;;;;5.55;2.88;;;;;;;10.23;46.65;100159.44;5052797;28;20021;-56
2021/11/29 00:22:42;;;;;;;3.90;2.75;;;;;;;10.23;46.55;100162.13;5052424;28;20485;-56
2021/11/29 00:25:08;;;;;;;8.45;2.75;;;;;;;10.20;46.50;100154.38;5053097;28;20025;-56
2021/11/29 00:27:34;;;;;;;3.05;2.45;;;;;;;10.24;46.35;100158.47;5052559;28;20405;-56
2021/11/29 00:30:00;;;;;;;4.07;2.63;;;;;;;10.22;46.11;100171.97;5052566;28;20017;-57
2021/11/29 00:32:25;;;;;;;7.28;2.92;;;;;;;10.21;46.71;100158.75;5051687;28;20106;-56
2021/11/29 00:34:51;;;;;;;7.22;3.08;;;;;;;10.24;46.42;100162.00;5052496;28;20048;-57
2021/11/29 00:37:17;;;;;;;5.47;2.53;;;;;;;10.26;46.70;100161.81;5052578;28;20029;-56
2021/11/29 00:39:42;;;;;;;4.68;2.92;;;;;;;10.25;46.95;100154.78;5051350;28;20413;-56
2021/11/29 00:42:07;;;;;;;8.88;2.53;;;;;;;10.26;46.77;100156.47;5052777;28;20032;-56
2021/11/29 00:44:33;;;;;;;2.60;2.03;;;;;;;10.28;46.94;100175.91;5051250;28;20032;-56
2021/11/29 00:46:58;;;;;;;2.70;2.00;;;;;;;10.30;46.40;100180.13;5052422;28;20458;-56
2021/11/29 00:49:24;;;;;;;5.70;2.10;;;;;;;10.30;46.41;100174.78;5052940;28;20021;-56
2021/11/29 00:51:49;;;;;;;5.07;2.20;;;;;;;10.30;46.54;100179.31;5052410;28;20148;-57
2021/11/29 00:54:14;;;;;;;3.63;2.00;;;;;;;10.33;46.62;100189.72;5053270;28;20032;-56
2021/11/29 00:56:40;;;;;;;3.28;1.50;;;;;;;10.35;46.60;100190.41;5053375;28;20029;-56
2021/11/29 00:59:05;;;;;;;5.03;1.75;;;;;;;10.34;46.52;100188.72;5053231;28;20021;-56
2021/11/29 01:01:31;;;;;;;5.35;2.03;;;;;;;10.33;46.38;100187.06;5053253;28;20021;-57
2021/11/29 01:03:56;;;;;;;5.25;1.95;;;;;;;10.32;46.77;100188.03;5053210;28;20473;-57
2021/11/29 01:06:21;;;;;;;3.60;2.20;;;;;;;10.31;46.95;100194.34;5035382;28;20025;-57
2021/11/29 01:08:47;;;;;;;4.38;3.25;;;;;;;10.33;46.27;100205.78;5051979;28;20025;-56
2021/11/29 01:11:12;;;;;;;4.25;2.95;;;;;;;10.30;46.59;100195.38;5053067;28;20018;-57
2021/11/29 01:13:38;;;;;;;9.93;2.53;;;;;;;10.30;46.52;100201.53;5053082;28;20048;-57
2021/11/29 01:16:04;;;;;;;4.15;2.50;;;;;;;10.26;46.13;100205.50;5053181;28;20017;-57
2021/11/29 01:18:29;;;;;;;5.93;2.10;;;;;;;10.22;46.58;100198.72;5053326;28;20023;-56
2021/11/29 01:20:55;;;;;;;4.47;2.55;;;;;;;10.20;46.49;100200.72;5053527;28;20549;-56
2021/11/29 01:23:21;;;;;;;3.60;1.90;;;;;;;10.16;46.70;100199.28;5052985;28;20389;-56
2021/11/29 01:25:47;;;;;;;4.40;2.28;;;;;;;10.11;46.69;100206.03;5053076;28;20107;-56
2021/11/29 01:28:13;;;;;;;4.15;1.63;;;;;;;10.13;46.55;100204.13;5052654;28;20049;-57
2021/11/29 01:30:38;;;;;;;2.95;1.50;;;;;;;10.10;46.61;100209.72;5053118;28;20474;-57
2021/11/29 01:33:05;;;;;;;5.47;1.23;;;;;;;10.10;46.65;100209.72;5055504;28;20025;-56
2021/11/29 01:35:31;;;;;;;1.95;1.42;;;;;;;10.10;46.83;100209.72;5055442;28;20086;-56
2021/11/29 01:37:57;;;;;;;4.15;1.67;;;;;;;10.10;46.81;100215.06;5056662;28;20432;-56
2021/11/29 01:40:22;;;;;;;4.50;1.63;;;;;;;10.04;46.49;100205.78;5055272;28;20021;-56
2021/11/29 01:42:54;;;;;;;3.95;1.45;;;;;;;10.07;46.73;100216.19;5056647;28;20047;-56
2021/11/29 01:45:20;;;;;;;2.08;1.30;;;;;;;10.04;46.37;100207.59;5056613;28;20434;-57
2021/11/29 01:47:45;;;;;;;2.70;1.35;;;;;;;10.08;46.46;100222.41;5056403;28;20059;-56
2021/11/29 01:50:10;;;;;;;1.58;1.20;;;;;;;10.05;46.51;100218.13;5056764;28;20029;-56
2021/11/29 01:52:36;;;;;;;3.83;1.63;;;;;;;10.05;46.98;100220.00;5056665;28;20029;-57
2021/11/29 01:55:01;;;;;;;2.55;1.42;;;;;;;10.08;46.76;100233.09;5056958;28;20437;-57
2021/11/29 01:57:27;;;;;;;5.43;1.48;;;;;;;10.05;46.74;100228.03;5056888;28;20090;-56
2021/11/29 01:59:52;;;;;;;8.20;1.80;;;;;;;10.07;46.76;100231.41;5056845;28;20466;-56
2021/11/29 02:02:18;;;;;;;7.07;2.40;;;;;;;10.04;46.64;100232.53;5056604;28;20033;-56
2021/11/29 02:04:44;;;;;;;2.83;1.60;;;;;;;9.98;46.69;100224.19;5038386;28;20025;-56
2021/11/29 02:07:10;;;;;;;3.10;1.50;;;;;;;10.00;46.62;100239.13;5056226;28;20470;-56
2021/11/29 02:09:36;;;;;;;3.47;2.05;;;;;;;9.97;46.30;100231.38;5056679;28;20363;-56
2021/11/29 02:12:01;;;;;;;1.77;1.67;;;;;;;9.97;46.82;100235.91;5056738;28;20078;-56
2021/11/29 02:14:26;;;;;;;1.50;1.40;;;;;;;9.95;46.24;100234.22;5056504;28;20081;-56
2021/11/29 02:16:52;;;;;;;2.92;1.45;;;;;;;9.93;46.32;100244.22;5056659;28;20024;-56
2021/11/29 02:19:17;;;;;;;3.13;1.63;;;;;;;9.93;46.37;100241.53;5056311;28;20059;-56
2021/11/29 02:21:43;;;;;;;4.75;1.50;;;;;;;9.92;46.71;100250.53;5056085;28;20147;-56
2021/11/29 02:24:08;;;;;;;5.80;2.08;;;;;;;9.90;46.64;100249.84;5056470;28;20104;-56
2021/11/29 02:26:36;;;;;;;2.25;1.20;;;;;;;9.93;46.45;100264.75;5056258;28;20025;-56
2021/11/29 02:29:07;;;;;;;6.45;1.60;;;;;;;9.95;46.49;100271.66;5055621;28;20128;-56
2021/11/29 02:31:36;;;;;;;2.95;1.90;;;;;;;9.98;47.69;100267.00;5056113;28;20048;-56
2021/11/29 02:34:10;;;;;;;1.83;1.70;;;;;;;10.01;46.77;100266.72;5055419;28;20106;-56
2021/11/29 02:36:35;;;;;;;6.35;1.70;;;;;;;10.02;46.37;100255.91;5055582;28;20016;-56
2021/11/29 02:39:02;;;;;;;2.95;1.90;;;;;;;10.05;46.81;100257.47;5053945;28;20048;-56
2021/11/29 02:41:28;;;;;;;6.00;1.80;;;;;;;10.06;47.06;100261.81;5055341;28;20038;-56
2021/11/29 02:43:53;;;;;;;2.67;1.73;;;;;;;10.07;46.43;100258.16;5054749;28;20021;-56
2021/11/29 02:46:18;;;;;;;1.45;1.30;;;;;;;10.09;46.87;100269.56;5047187;28;20100;-57
2021/11/29 02:48:46;;;;;;;2.08;1.50;;;;;;;10.10;46.51;100271.25;5035246;28;20573;-57
2021/11/29 02:51:20;;;;;;;2.15;1.63;;;;;;;10.09;46.55;100273.09;5035294;28;20371;-56
2021/11/29 02:53:45;;;;;;;1.52;1.35;;;;;;;10.10;46.88;100284.63;5035092;28;20026;-56
2021/11/29 02:56:11;;;;;;;2.17;1.50;;;;;;;10.12;46.52;100277.31;5035320;28;20079;-57
2021/11/29 02:58:40;;;;;;;3.03;1.67;;;;;;;10.12;46.49;100274.63;5033790;28;20032;-56
2021/11/29 03:01:05;;;;;;;2.88;1.77;;;;;;;10.12;46.80;100266.59;5035345;28;20022;-56
2021/11/29 03:03:30;;;;;;;2.67;1.75;;;;;;;10.12;46.61;100269.28;5035563;28;20021;-56
2021/11/29 03:05:56;;;;;;;2.22;1.60;;;;;;;10.10;46.85;100268.56;5035072;28;20045;-57
2021/11/29 03:08:21;;;;;;;3.88;2.33;;;;;;;10.13;46.70;100268.34;5035056;28;20470;-56
2021/11/29 03:10:46;;;;;;;3.38;1.60;;;;;;;10.14;46.63;100267.31;5034940;28;20444;-57
2021/11/29 03:13:12;;;;;;;2.78;1.52;;;;;;;10.14;46.87;100278.88;5034806;28;20496;-56
2021/11/29 03:15:37;;;;;;;2.53;1.52;;;;;;;10.15;46.72;100277.06;5034689;28;20083;-55
2021/11/29 03:18:02;;;;;;;1.90;1.48;;;;;;;10.10;46.78;100274.78;5033125;28;20029;-55
2021/11/29 03:20:28;;;;;;;3.03;1.40;;;;;;;10.10;46.55;100271.25;5035067;28;20029;-55
2021/11/29 03:22:53;;;;;;;3.58;1.73;;;;;;;10.11;47.31;100286.31;5033497;28;20029;-55
2021/11/29 03:25:18;;;;;;;2.20;1.70;;;;;;;10.13;46.95;100295.09;5034793;28;20382;-54
2021/11/29 03:27:44;;;;;;;3.88;1.65;;;;;;;10.13;46.97;100295.94;5034452;28;20073;-54
2021/11/29 03:30:10;;;;;;;1.35;1.23;;;;;;;10.12;46.91;100293.34;5034947;28;20017;-55
2021/11/29 03:32:37;;;;;;;2.55;1.40;;;;;;;10.11;46.73;100291.66;5034882;28;20446;-54
2021/11/29 03:35:05;;;;;;;5.60;1.58;;;;;;;10.11;47.39;100292.50;5034562;28;20033;-55
2021/11/29 03:37:30;;;;;;;2.08;1.40;;;;;;;10.09;46.53;100294.47;5034765;28;20501;-54
2021/11/29 03:39:56;;;;;;;2.55;1.60;;;;;;;10.07;46.95;100296.47;5035254;28;20033;-54
2021/11/29 03:42:21;;;;;;;3.95;1.58;;;;;;;10.09;47.22;100294.47;5034944;28;20473;-54
2021/11/29 03:44:46;;;;;;;1.35;1.25;;;;;;;10.03;47.71;100291.50;5034834;28;20488;-54
2021/11/29 03:47:12;;;;;;;1.83;1.08;;;;;;;10.08;46.70;100297.31;5034495;28;20025;-55
2021/11/29 03:49:37;;;;;;;2.13;1.42;;;;;;;10.04;47.22;100293.22;5035319;28;20094;-54
2021/11/29 03:52:03;;;;;;;3.08;1.73;;;;;;;10.05;46.85;100297.59;5034050;28;20022;-55
2021/11/29 03:54:28;;;;;;;3.47;1.67;;;;;;;10.04;47.00;100303.91;5034874;28;20378;-54
2021/11/29 03:56:54;;;;;;;1.42;1.30;;;;;;;10.05;47.07;100309.09;5033682;28;20469;-54
2021/11/29 03:59:19;;;;;;;1.50;1.17;;;;;;;10.00;47.39;100305.16;5034725;28;20029;-55
2021/11/29 04:01:45;;;;;;;3.53;1.55;;;;;;;9.98;46.91;100312.50;5033478;28;20037;-54
2021/11/29 04:04:10;;;;;;;5.82;1.55;;;;;;;9.93;47.01;100302.22;5032851;28;20025;-54
2021/11/29 04:06:36;;;;;;;9.07;1.50;;;;;;;9.92;46.54;100319.25;5034130;28;20032;-54
2021/11/29 04:09:03;;;;;;;1.30;1.20;;;;;;;9.95;47.13;100327.84;5034113;28;20029;-54
2021/11/29 04:11:29;;;;;;;4.70;1.65;;;;;;;9.89;47.28;100316.84;5034714;28;20022;-54
2021/11/29 04:13:55;;;;;;;2.38;1.52;;;;;;;9.86;47.24;100315.28;5034120;28;20060;-54
2021/11/29 04:16:20;;;;;;;2.42;1.50;;;;;;;9.92;47.28;100325.44;5033791;28;20394;-54
2021/11/29 04:18:46;;;;;;;5.00;1.83;;;;;;;9.92;47.24;100324.59;5033904;28;20026;-54
2021/11/29 04:21:14;;;;;;;2.22;1.50;;;;;;;9.90;47.35;100324.75;5034304;28;20456;-54
2021/11/29 04:23:42;;;;;;;2.83;2.00;;;;;;;9.87;46.87;100316.97;5033957;28;20030;-54
2021/11/29 04:26:10;;;;;;;4.25;1.90;;;;;;;9.87;46.65;100319.66;5033726;28;20025;-54
2021/11/29 04:28:35;;;;;;;7.25;2.83;;;;;;;9.84;47.16;100317.25;5033514;28;20498;-54
2021/11/29 04:31:01;;;;;;;5.97;2.70;;;;;;;9.87;46.93;100333.03;5033779;28;20107;-54
2021/11/29 04:33:26;;;;;;;6.32;3.10;;;;;;;9.84;47.20;100327.97;5032399;28;20026;-54
2021/11/29 04:35:52;;;;;;;7.10;3.97;;;;;;;9.76;47.29;100329.63;5033908;28;20053;-56
2021/11/29 04:38:17;;;;;;;4.85;3.53;;;;;;;9.77;46.87;100337.50;5033957;28;20411;-55
2021/11/29 04:40:43;;;;;;;8.30;3.92;;;;;;;9.74;46.88;100331.59;5033508;28;20441;-54
2021/11/29 04:43:08;;;;;;;11.63;4.07;;;;;;;9.67;47.54;100323.25;5033829;28;20017;-54
2021/11/29 04:45:34;;;;;;;5.68;4.05;;;;;;;9.68;47.50;100341.00;5032543;28;20064;-54
2021/11/29 04:48:00;;;;;;;6.07;3.65;;;;;;;9.65;47.25;100343.09;5033803;28;20028;-54
2021/11/29 04:50:25;;;;;;;12.57;4.22;;;;;;;9.63;47.08;100351.22;5033850;28;20136;-54
2021/11/29 04:52:51;;;;;;;8.70;4.43;;;;;;;9.62;47.05;100346.88;5033728;28;20104;-54
2021/11/29 04:55:16;;;;;;;11.02;5.03;;;;;;;9.60;47.35;100351.53;5032728;28;20026;-54
2021/11/29 04:57:42;;;;;;;8.77;4.43;;;;;;;9.59;47.36;100354.31;5033542;28;20033;-54
2021/11/29 05:00:09;;;;;;;10.93;4.75;;;;;;;9.53;46.94;100350.34;5032462;28;20148;-55
2021/11/29 05:02:35;;;;;;;7.13;4.35;;;;;;;9.56;47.23;100350.09;5032399;28;20032;-54
2021/11/29 05:05:00;;;;;;;9.93;4.57;;;;;;;9.56;47.52;100366.13;5033662;28;20021;-55
2021/11/29 05:07:26;;;;;;;9.30;4.68;;;;;;;9.52;46.62;100343.31;5034751;28;20033;-54
2021/11/29 05:09:52;;;;;;;11.80;4.80;;;;;;;9.50;47.26;100355.97;5037370;28;20380;-54
2021/11/29 05:12:17;;;;;;;12.23;6.05;;;;;;;9.48;47.70;100357.09;5036243;28;20022;-54
2021/11/29 05:14:44;;;;;;;8.00;4.75;;;;;;;9.52;46.70;100364.69;5037344;28;20049;-54
2021/11/29 05:17:09;;;;;;;8.93;4.72;;;;;;;9.52;47.31;100361.19;5037337;28;20528;-54
2021/11/29 05:19:35;;;;;;;8.77;5.18;;;;;;;9.49;47.27;100364.13;5036093;28;20026;-54
2021/11/29 05:22:00;;;;;;;12.82;5.95;;;;;;;9.54;47.32;100367.25;5035858;28;20393;-56
2021/11/29 05:24:25;;;;;;;10.68;5.43;;;;;;;9.53;47.67;100373.56;5036031;28;20100;-55
2021/11/29 05:26:51;;;;;;;10.15;5.32;;;;;;;9.54;47.02;100370.78;5036330;28;20086;-54
2021/11/29 05:29:16;;;;;;;12.15;5.90;;;;;;;9.55;46.44;100385.00;5035779;28;20052;-54
2021/11/29 05:31:42;;;;;;;11.80;5.47;;;;;;;9.54;47.26;100389.50;5036847;28;20104;-54
2021/11/29 05:34:08;;;;;;;14.70;6.25;;;;;;;9.55;47.46;100390.34;5037377;28;20381;-55
2021/11/29 05:36:33;;;;;;;10.35;5.75;;;;;;;9.54;47.64;100400.19;5037114;28;20033;-54
2021/11/29 05:38:58;;;;;;;13.27;5.57;;;;;;;9.50;47.14;100387.19;5037065;28;20037;-54
2021/11/29 05:41:24;;;;;;;13.52;4.97;;;;;;;9.51;47.47;100389.75;5036807;28;20021;-54
2021/11/29 05:43:49;;;;;;;12.65;5.63;;;;;;;9.54;47.19;100400.19;5035580;28;20021;-54
2021/11/29 05:46:21;;;;;;;13.70;6.22;;;;;;;9.55;47.38;100401.84;5036597;28;20473;-55
2021/11/29 05:48:46;;;;;;;12.60;6.38;;;;;;;9.59;47.61;100407.78;5037559;28;20083;-54
2021/11/29 05:51:11;;;;;;;13.52;6.00;;;;;;;9.53;47.82;100409.19;5037087;28;20108;-54
2021/11/29 05:53:37;;;;;;;14.10;5.88;;;;;;;9.57;46.68;100417.78;5036771;28;20068;-55
2021/11/29 05:56:04;;;;;;;11.48;5.82;;;;;;;9.58;47.22;100422.97;5036498;28;20025;-54
2021/11/29 05:58:29;;;;;;;17.00;7.40;;;;;;;9.60;47.27;100429.06;5036680;28;20032;-55
2021/11/29 06:00:55;;;;;;;16.65;6.28;;;;;;;9.61;47.04;100433.41;5035275;28;20030;-54
2021/11/29 06:03:20;;;;;;;11.68;5.65;;;;;;;9.59;47.95;100427.38;5036680;28;20025;-54
2021/11/29 06:05:46;;;;;;;11.77;6.20;;;;;;;9.63;47.25;100431.44;5035481;28;20047;-54
2021/11/29 06:08:11;;;;;;;12.05;4.82;;;;;;;9.58;46.94;100417.63;5036280;28;20367;-54
2021/11/29 06:10:36;;;;;;;12.43;5.82;;;;;;;9.67;47.63;100438.25;5036543;28;20363;-55
2021/11/29 06:13:02;;;;;;;12.73;5.45;;;;;;;9.69;47.18;100436.28;5019014;28;20033;-54
2021/11/29 06:15:27;;;;;;;11.57;5.82;;;;;;;9.71;47.00;100439.69;5035533;28;20029;-54
2021/11/29 06:17:52;;;;;;;17.08;6.25;;;;;;;9.69;47.91;100438.09;5035978;28;20022;-54
2021/11/29 06:20:22;;;;;;;11.40;5.40;;;;;;;9.69;47.85;100441.63;5033714;28;20033;-54
2021/11/29 06:22:52;;;;;;;11.60;5.32;;;;;;;9.72;47.84;100438.69;5035955;28;20032;-55
2021/11/29 06:25:19;;;;;;;13.38;5.43;;;;;;;9.73;46.96;100437.72;5036140;28;20060;-54
2021/11/29 06:27:45;;;;;;;9.88;5.38;;;;;;;9.73;47.27;100437.72;5035393;28;20049;-54
2021/11/29 06:30:11;;;;;;;7.65;3.72;;;;;;;9.70;47.70;100448.69;5035043;28;20033;-54
2021/11/29 06:32:37;;;;;;;6.68;3.42;;;;;;;9.67;47.08;100451.59;5036213;28;20108;-54
2021/11/29 06:35:03;;;;;;;7.57;3.45;;;;;;;9.65;46.80;100440.22;5035529;28;20136;-54
2021/11/29 06:37:29;;;;;;;11.20;3.63;;;;;;;9.66;47.85;100441.06;5036144;28;20033;-54
2021/11/29 06:39:59;;;;;;;6.40;3.30;;;;;;;9.69;47.96;100444.28;5036326;28;20056;-54
2021/11/29 06:42:24;;;;;;;5.78;3.47;;;;;;;9.69;48.23;100446.97;5036295;28;20060;-54
2021/11/29 06:44:50;;;;;;;8.40;3.97;;;;;;;9.75;48.05;100453.63;5034661;28;20033;-54
2021/11/29 06:47:15;;;;;;;11.40;3.85;;;;;;;9.75;48.31;100457.13;5035888;28;20410;-54
2021/11/29 06:49:41;;;;;;;7.95;3.47;;;;;;;9.76;47.90;100460.66;5035736;28;20025;-55
2021/11/29 06:52:06;;;;;;;8.40;3.53;;;;;;;9.79;48.21;100463.06;5036187;28;20022;-55
2021/11/29 06:54:35;;;;;;;6.13;2.78;;;;;;;9.80;48.18;100465.59;5035768;28;20033;-55
2021/11/29 06:57:01;;;;;;;6.53;3.10;;;;;;;9.83;47.92;100464.47;5035503;28;20029;-54
2021/11/29 06:59:27;;;;;;;5.32;2.72;;;;;;;9.85;48.41;100467.91;5035559;28;20028;-55
2021/11/29 07:01:52;;;;;;;5.47;3.13;;;;;;;9.87;48.03;100477.47;5034545;28;20033;-55
2021/11/29 07:04:19;;;;;;;3.90;2.97;;;;;;;9.91;48.41;100478.03;5036153;28;20156;-55
2021/11/29 07:06:45;;;;;;;5.78;3.13;;;;;;;9.89;48.13;100472.84;5035993;28;20029;-54
2021/11/29 07:09:11;;;;;;;4.68;3.03;;;;;;;9.92;47.96;100485.09;5035631;28;20029;-55
2021/11/29 07:11:36;;;;;;;6.25;3.90;;;;;;;9.88;47.87;100473.81;5035202;28;20033;-55
2021/11/29 07:14:04;;;;;;;6.72;3.55;;;;;;;9.89;47.93;100472.84;5034829;28;20515;-55
2021/11/29 07:16:29;;;;;;;6.88;3.45;;;;;;;9.92;47.88;100480.59;5033754;28;20048;-54
2021/11/29 07:18:54;;;;;;;9.00;4.07;;;;;;;9.93;48.05;100482.31;5035013;28;20462;-55
2021/11/29 07:21:20;;;;;;;8.07;4.03;;;;;;;9.95;48.15;100495.53;5035146;28;20087;-55
2021/11/29 07:23:45;;;;;;;6.75;3.63;;;;;;;9.98;47.64;100500.63;5034897;28;20029;-55
2021/11/29 07:26:10;;;;;;;6.93;3.80;;;;;;;9.99;47.34;100490.78;5033443;28;20035;-54
2021/11/29 07:28:36;;;;;;;6.32;3.78;;;;;;;9.97;47.19;100487.38;5034554;28;20076;-55
2021/11/29 07:31:01;;;;;;;7.85;3.75;;;;;;;9.92;47.92;100488.63;5017079;28;20037;-54
2021/11/29 07:33:27;;;;;;;11.85;5.05;;;;;;;9.98;48.14;100507.78;5034452;28;20026;-55
2021/11/29 07:35:53;;;;;;;7.32;3.85;;;;;;;9.98;47.76;100499.75;5034521;28;20053;-54
2021/11/29 07:38:18;;;;;;;13.45;5.15;;;;;;;9.97;47.74;100498.91;5034371;28;20037;-55
2021/11/29 07:40:44;;;;;;;7.93;3.90;;;;;;;9.95;47.88;100496.38;5034711;28;20025;-54
2021/11/29 07:43:10;;;;;;;8.80;4.97;;;;;;;9.99;48.10;100509.50;5033399;28;20554;-54
2021/11/29 07:45:38;;;;;;;6.47;3.78;;;;;;;9.98;47.59;100505.13;5034394;28;20116;-55
2021/11/29 07:48:03;;;;;;;11.15;3.70;;;;;;;9.97;47.44;100506.13;5033240;28;20470;-54
2021/11/29 07:50:29;;;;;;;6.13;3.80;;;;;;;10.01;47.33;100510.19;5034155;28;20078;-55
2021/11/29 07:52:54;;;;;;;5.18;3.47;;;;;;;10.03;48.02;100508.22;5033155;28;20025;-54
2021/11/29 07:55:24;;;;;;;12.40;3.58;;;;;;;10.06;47.45;100514.19;5033025;28;20172;-55
2021/11/29 07:57:51;;;;;;;7.50;3.72;;;;;;;10.10;47.25;100520.13;5034575;28;20363;-55
2021/11/29 08:00:20;;;;;;;7.38;3.42;;;;;;;10.10;47.95;100525.47;5034206;28;20527;-55
2021/11/29 08:02:47;;;;;;;7.85;2.95;;;;;;;10.09;48.20;100532.63;5034141;28;20493;-56
2021/11/29 08:05:13;;;;;;;6.88;3.05;;;;;;;10.07;48.20;100525.72;5032795;28;20406;-55
2021/11/29 08:07:38;;;;;;;5.82;3.08;;;;;;;10.11;47.49;100532.50;5034436;28;20029;-55
2021/11/29 08:10:04;;;;;;;4.43;2.50;;;;;;;10.16;47.74;100546.38;5033919;28;20071;-55
2021/11/29 08:12:30;;;;;;;4.65;2.75;;;;;;;10.18;47.64;100536.38;5034327;28;20080;-55
2021/11/29 08:14:55;;;;;;;4.28;2.53;;;;;;;10.23;47.43;100542.16;5032645;28;20480;-56
2021/11/29 08:17:21;;;;;;;5.18;3.10;;;;;;;10.24;48.04;100539.38;5034322;28;20022;-55
2021/11/29 08:19:47;;;;;;;11.15;2.95;;;;;;;10.26;47.96;100533.88;5034007;28;20533;-55
2021/11/29 08:22:13;;;;;;;4.68;2.50;;;;;;;10.32;47.95;100546.72;5033937;28;20083;-55
2021/11/29 08:24:39;;;;;;;6.82;2.63;;;;;;;10.35;47.40;100546.47;5032595;28;20044;-55
2021/11/29 08:27:05;;;;;;;8.77;2.90;;;;;;;10.31;47.13;100534.31;5033823;28;20029;-55
2021/11/29 08:29:30;;;;;;;3.78;2.38;;;;;;;10.41;47.65;100548.59;5033447;28;20552;-54
2021/11/29 08:31:55;;;;;;;6.80;2.38;;;;;;;10.35;47.78;100536.59;5033840;28;20025;-55
2021/11/29 08:34:21;;;;;;;4.57;2.38;;;;;;;10.47;47.83;100556.06;5033752;28;20470;-55
2021/11/29 08:36:46;;;;;;;5.63;3.85;;;;;;;10.54;47.60;100554.56;5034031;28;20040;-55
2021/11/29 08:39:12;;;;;;;5.22;2.47;;;;;;;10.63;47.55;100556.44;5033873;28;20072;-55
2021/11/29 08:41:37;;;;;;;6.70;2.90;;;;;;;10.66;47.21;100544.59;5033285;28;20390;-55
2021/11/29 08:44:03;;;;;;;11.70;3.13;;;;;;;10.78;47.87;100557.72;5032567;28;20029;-54
2021/11/29 08:46:30;;;;;;;6.30;3.03;;;;;;;10.86;47.48;100562.44;5034026;28;20029;-54
2021/11/29 08:48:56;;;;;;;5.88;3.03;;;;;;;10.82;47.80;100553.81;5034056;28;20492;-54
2021/11/29 08:51:22;;;;;;;7.70;3.72;;;;;;;10.94;47.62;100563.41;5033587;28;20034;-55
2021/11/29 08:53:47;;;;;;;10.95;3.70;;;;;;;11.05;47.34;100568.63;5032429;28;20029;-55
2021/11/29 08:56:13;;;;;;;5.93;3.50;;;;;;;11.15;47.39;100562.44;5033902;28;20493;-54
2021/11/29 08:58:39;;;;;;;8.75;2.60;;;;;;;11.17;47.42;100560.50;5033503;28;20032;-55
2021/11/29 09:01:05;;;;;;;8.32;3.15;;;;;;;11.23;46.96;100557.22;5033351;28;20040;-55
2021/11/29 09:03:31;;;;;;;8.20;3.28;;;;;;;11.25;47.27;100561.47;5033636;28;20045;-55
2021/11/29 09:05:57;;;;;;;11.70;3.60;;;;;;;11.36;47.17;100557.81;5033256;28;20399;-55
2021/11/29 09:08:22;;;;;;;10.75;3.53;;;;;;;11.43;47.09;100561.63;5033334;28;20061;-55
2021/11/29 09:10:49;;;;;;;12.70;3.35;;;;;;;11.52;47.35;100568.84;5032357;28;20025;-55
2021/11/29 09:13:14;;;;;;;12.45;3.20;;;;;;;11.68;47.67;100561.03;5033161;28;20060;-55
2021/11/29 09:15:42;;;;;;;12.80;4.03;;;;;;;11.85;46.83;100563.03;5033486;28;20026;-57
2021/11/29 09:18:10;;;;;;;10.40;3.58;;;;;;;12.02;46.48;100566.81;5031981;28;20056;-55
2021/11/29 09:20:37;;;;;;;15.07;3.80;;;;;;;11.99;47.14;100572.47;5033324;28;20629;-55
2021/11/29 09:23:05;;;;;;;10.70;3.47;;;;;;;11.91;46.69;100569.66;5033701;28;20102;-55
2021/11/29 09:25:31;;;;;;;10.18;4.63;;;;;;;11.97;46.93;100580.69;5033369;28;20076;-55
2021/11/29 09:27:57;;;;;;;13.50;4.82;;;;;;;11.94;47.31;100578.28;5033318;28;20053;-57
2021/11/29 09:30:22;;;;;;;8.93;4.50;;;;;;;11.90;46.87;100587.59;5033890;28;20056;-56
2021/11/29 09:32:48;;;;;;;11.80;4.03;;;;;;;11.83;46.93;100581.13;5033200;28;20367;-56
2021/11/29 09:35:17;;;;;;;14.18;4.38;;;;;;;11.83;46.89;100580.28;5033082;28;20048;-56
2021/11/29 09:37:44;;;;;;;12.60;4.03;;;;;;;11.82;47.00;100584.78;5032075;28;20025;-56
2021/11/29 09:40:19;;;;;;;14.25;4.07;;;;;;;11.79;47.33;100598.50;5031852;28;20490;-56
2021/11/29 09:42:45;;;;;;;10.48;3.50;;;;;;;11.74;47.12;100597.22;5033372;28;20521;-56
2021/11/29 09:45:12;;;;;;;12.60;4.15;;;;;;;11.73;47.23;100607.09;5033124;28;20025;-56
2021/11/29 09:47:38;;;;;;;10.23;4.18;;;;;;;11.66;47.08;100605.97;5031883;28;20485;-56
2021/11/29 09:50:05;;;;;;;12.93;4.00;;;;;;;11.65;47.49;100615.84;5031995;28;20097;-56
2021/11/29 09:52:30;;;;;;;12.73;4.72;;;;;;;11.63;47.15;100616.97;5031613;28;20021;-55
2021/11/29 09:54:56;;;;;;;10.05;3.42;;;;;;;11.59;47.65;100608.34;5033947;28;20037;-55
2021/11/29 09:57:21;;;;;;;12.85;3.70;;;;;;;11.42;47.22;100602.81;5036639;28;20052;-55
2021/11/29 09:59:47;;;;;;;8.07;3.85;;;;;;;11.41;47.32;100617.25;5036363;28;20026;-54
2021/11/29 10:02:14;;;;;;;12.68;2.92;;;;;;;11.33;47.43;100609.91;5036584;28;20029;-55
2021/11/29 10:04:47;;;;;;;7.78;2.65;;;;;;;11.33;47.44;100614.41;5036591;28;20061;-55
2021/11/29 10:07:26;;;;;;;10.18;2.88;;;;;;;11.29;47.55;100618.34;5036165;28;20401;-55
2021/11/29 10:09:55;;;;;;;10.98;3.00;;;;;;;11.27;47.70;100626.53;5034889;28;20018;-55
2021/11/29 10:12:21;;;;;;;13.23;3.25;;;;;;;11.26;47.91;100618.63;5036481;28;20025;-55
2021/11/29 10:15:10;;;;;;;15.45;3.90;;;;;;;11.21;47.82;100623.56;5036152;28;20041;-55
2021/11/29 10:17:35;;;;;;;12.50;3.42;;;;;;;11.17;48.00;100624.84;5036454;28;20064;-55
2021/11/29 10:20:01;;;;;;;10.95;3.08;;;;;;;11.22;47.68;100633.31;5036126;28;20466;-56
2021/11/29 10:22:27;;;;;;;13.85;3.40;;;;;;;11.20;47.91;100630.75;5036262;28;20390;-55
2021/11/29 10:24:52;;;;;;;17.30;3.40;;;;;;;11.22;47.96;100626.13;5035163;28;20379;-55
2021/11/29 10:27:20;;;;;;;7.15;2.90;;;;;;;11.25;47.74;100625.00;5036014;28;20033;-55
2021/11/29 10:29:55;;;;;;;8.48;3.10;;;;;;;11.29;47.89;100623.72;5034636;28;20513;-55
2021/11/29 10:32:31;;;;;;;9.68;2.75;;;;;;;11.23;47.87;100613.53;5036191;28;20471;-55
2021/11/29 10:34:57;;;;;;;7.65;3.05;;;;;;;11.35;47.41;100624.00;5035912;28;20056;-55
2021/11/29 10:37:27;;;;;;;6.93;2.67;;;;;;;11.37;47.48;100613.13;5035530;28;20060;-55
2021/11/29 10:39:53;;;;;;;13.23;4.18;;;;;;;11.39;47.80;100621.91;5034449;28;20556;-56
2021/11/29 10:42:18;;;;;;;7.30;2.60;;;;;;;11.41;46.89;100631.50;5035935;28;20105;-56
2021/11/29 10:44:45;;;;;;;7.15;2.75;;;;;;;11.33;47.40;100626.00;5034695;28;20025;-56
2021/11/29 10:47:13;;;;;;;8.45;2.10;;;;;;;11.41;47.69;100633.34;5035521;28;20463;-55
2021/11/29 10:49:41;;;;;;;7.85;3.28;;;;;;;11.44;47.91;100643.78;5035402;28;20029;-56
2021/11/29 10:52:08;;;;;;;9.25;2.38;;;;;;;11.43;48.14;100639.41;5035379;28;20044;-56
2021/11/29 10:54:34;;;;;;;5.65;2.28;;;;;;;11.45;47.95;100648.13;5035705;28;20473;-55
2021/11/29 10:57:01;;;;;;;7.05;2.25;;;;;;;11.50;47.73;100651.28;5035503;28;20470;-55
2021/11/29 10:59:29;;;;;;;4.80;2.88;;;;;;;11.49;47.85;100654.94;5035029;28;20029;-55
2021/11/29 11:02:02;;;;;;;9.52;2.50;;;;;;;11.51;47.83;100655.63;5035101;28;20056;-55
2021/11/29 11:04:37;;;;;;;11.98;2.67;;;;;;;11.55;48.08;100662.44;5035231;28;20394;-55
2021/11/29 11:07:08;;;;;;;7.10;2.40;;;;;;;11.57;47.99;100660.44;5035203;28;20421;-56
2021/11/29 11:09:36;;;;;;;3.88;2.28;;;;;;;11.52;48.22;100654.66;5035441;28;20049;-56
2021/11/29 11:12:09;;;;;;;3.53;1.83;;;;;;;11.61;48.02;100667.25;5034981;28;20554;-55
2021/11/29 11:14:40;;;;;;;3.08;2.05;;;;;;;11.60;47.81;100670.91;5035018;28;20017;-55
2021/11/29 11:17:10;;;;;;;9.77;2.05;;;;;;;11.51;48.35;100663.69;5034983;28;20025;-55
2021/11/29 11:19:43;;;;;;;4.68;2.22;;;;;;;11.55;48.14;100670.47;5034697;28;20022;-54
2021/11/29 11:22:24;;;;;;;8.82;1.85;;;;;;;11.54;48.90;100676.81;5034869;28;20025;-55